sensor_id;sensor_type;location;lat;lon;timestamp;P1;durP1;ratioP1;P2;durP2;ratioP2
41627;SDS011;27321;50.816;6.054;2023-12-20T00:00:42;10.03;;;7.47;;
41627;SDS011;27321;50.816;6.054;2023-12-20T00:03:43;8.33;;;6.03;;
41627;SDS011;27321;50.816;6.054;2023-12-20T00:06:44;7.13;;;6.23;;
41627;SDS011;27321;50.816;6.054;2023-12-20T00:09:45;8.97;;;5.57;;
41627;SDS011;27321;50.816;6.054;2023-12-20T00:12:46;7.50;;;6.13;;
41627;SDS011;27321;50.816;6.054;2023-12-20T00:15:47;10.70;;;5.93;;
41627;SDS011;27321;50.816;6.054;2023-12-20T00:18:48;9.10;;;5.87;;
41627;SDS011;27321;50.816;6.054;2023-12-20T00:21:49;8.13;;;5.87;;
41627;SDS011;27321;50.816;6.054;2023-12-20T00:24:50;6.63;;;5.20;;
41627;SDS011;27321;50.816;6.054;2023-12-20T00:27:51;8.03;;;5.50;;
41627;SDS011;27321;50.816;6.054;2023-12-20T00:30:52;9.02;;;5.57;;
41627;SDS011;27321;50.816;6.054;2023-12-20T00:33:53;8.93;;;5.68;;
41627;SDS011;27321;50.816;6.054;2023-12-20T00:36:55;8.23;;;5.90;;
41627;SDS011;27321;50.816;6.054;2023-12-20T00:39:57;10.55;;;5.90;;
41627;SDS011;27321;50.816;6.054;2023-12-20T00:42:57;8.73;;;6.53;;
41627;SDS011;27321;50.816;6.054;2023-12-20T00:45:58;8.60;;;6.60;;
41627;SDS011;27321;50.816;6.054;2023-12-20T00:49:02;14.60;;;6.30;;
41627;SDS011;27321;50.816;6.054;2023-12-20T00:52:03;9.20;;;5.67;;
41627;SDS011;27321;50.816;6.054;2023-12-20T00:55:04;9.32;;;5.15;;
41627;SDS011;27321;50.816;6.054;2023-12-20T00:58:06;10.48;;;5.20;;
41627;SDS011;27321;50.816;6.054;2023-12-20T01:01:07;8.87;;;4.87;;
41627;SDS011;27321;50.816;6.054;2023-12-20T01:04:08;8.90;;;4.80;;
41627;SDS011;27321;50.816;6.054;2023-12-20T01:07:08;7.70;;;3.63;;
41627;SDS011;27321;50.816;6.054;2023-12-20T01:10:09;8.27;;;3.27;;
41627;SDS011;27321;50.816;6.054;2023-12-20T01:13:10;10.07;;;2.77;;
41627;SDS011;27321;50.816;6.054;2023-12-20T01:16:11;3.27;;;2.10;;
41627;SDS011;27321;50.816;6.054;2023-12-20T01:19:12;3.67;;;1.90;;
41627;SDS011;27321;50.816;6.054;2023-12-20T01:22:13;6.80;;;2.17;;
41627;SDS011;27321;50.816;6.054;2023-12-20T01:25:14;4.57;;;2.47;;
41627;SDS011;27321;50.816;6.054;2023-12-20T01:28:15;5.00;;;1.90;;
41627;SDS011;27321;50.816;6.054;2023-12-20T01:31:16;5.50;;;2.00;;
41627;SDS011;27321;50.816;6.054;2023-12-20T01:34:17;5.73;;;2.10;;
41627;SDS011;27321;50.816;6.054;2023-12-20T01:37:18;5.20;;;1.60;;
41627;SDS011;27321;50.816;6.054;2023-12-20T01:40:19;4.63;;;1.43;;
41627;SDS011;27321;50.816;6.054;2023-12-20T01:43:20;3.70;;;2.10;;
41627;SDS011;27321;50.816;6.054;2023-12-20T01:46:21;3.57;;;1.57;;
41627;SDS011;27321;50.816;6.054;2023-12-20T01:49:22;5.53;;;1.57;;
41627;SDS011;27321;50.816;6.054;2023-12-20T01:52:23;6.10;;;2.00;;
41627;SDS011;27321;50.816;6.054;2023-12-20T01:55:27;6.73;;;1.83;;
41627;SDS011;27321;50.816;6.054;2023-12-20T01:58:31;5.13;;;1.70;;
41627;SDS011;27321;50.816;6.054;2023-12-20T02:01:32;4.13;;;1.45;;
41627;SDS011;27321;50.816;6.054;2023-12-20T02:04:33;6.80;;;1.70;;
41627;SDS011;27321;50.816;6.054;2023-12-20T02:07:34;6.75;;;1.42;;
41627;SDS011;27321;50.816;6.054;2023-12-20T02:10:35;3.07;;;1.20;;
41627;SDS011;27321;50.816;6.054;2023-12-20T02:13:36;4.27;;;1.00;;
41627;SDS011;27321;50.816;6.054;2023-12-20T02:16:37;4.23;;;1.23;;
41627;SDS011;27321;50.816;6.054;2023-12-20T02:19:38;3.70;;;1.23;;
41627;SDS011;27321;50.816;6.054;2023-12-20T02:22:38;5.47;;;1.47;;
41627;SDS011;27321;50.816;6.054;2023-12-20T02:25:39;4.13;;;1.20;;
41627;SDS011;27321;50.816;6.054;2023-12-20T02:28:40;4.97;;;1.27;;
41627;SDS011;27321;50.816;6.054;2023-12-20T02:31:41;3.17;;;1.10;;
41627;SDS011;27321;50.816;6.054;2023-12-20T02:34:42;4.87;;;1.17;;
41627;SDS011;27321;50.816;6.054;2023-12-20T02:37:43;6.00;;;1.80;;
41627;SDS011;27321;50.816;6.054;2023-12-20T02:40:44;5.67;;;1.27;;
41627;SDS011;27321;50.816;6.054;2023-12-20T02:43:45;3.43;;;1.37;;
41627;SDS011;27321;50.816;6.054;2023-12-20T02:46:46;5.13;;;1.50;;
41627;SDS011;27321;50.816;6.054;2023-12-20T02:49:47;9.15;;;2.15;;
41627;SDS011;27321;50.816;6.054;2023-12-20T02:52:51;4.70;;;1.50;;
41627;SDS011;27321;50.816;6.054;2023-12-20T02:55:52;5.07;;;1.53;;
41627;SDS011;27321;50.816;6.054;2023-12-20T02:58:53;4.80;;;1.90;;
41627;SDS011;27321;50.816;6.054;2023-12-20T03:01:54;7.30;;;1.90;;
41627;SDS011;27321;50.816;6.054;2023-12-20T03:04:57;4.20;;;1.80;;
41627;SDS011;27321;50.816;6.054;2023-12-20T03:08:03;11.47;;;2.70;;
41627;SDS011;27321;50.816;6.054;2023-12-20T03:11:04;10.85;;;2.40;;
41627;SDS011;27321;50.816;6.054;2023-12-20T03:14:05;5.93;;;2.57;;
41627;SDS011;27321;50.816;6.054;2023-12-20T03:17:06;8.53;;;2.17;;
41627;SDS011;27321;50.816;6.054;2023-12-20T03:20:07;9.17;;;2.60;;
41627;SDS011;27321;50.816;6.054;2023-12-20T03:23:08;8.65;;;2.45;;
41627;SDS011;27321;50.816;6.054;2023-12-20T03:26:09;5.57;;;2.13;;
41627;SDS011;27321;50.816;6.054;2023-12-20T03:29:10;7.60;;;2.13;;
41627;SDS011;27321;50.816;6.054;2023-12-20T03:32:11;9.67;;;2.60;;
41627;SDS011;27321;50.816;6.054;2023-12-20T03:35:12;7.53;;;2.67;;
41627;SDS011;27321;50.816;6.054;2023-12-20T03:38:13;6.55;;;2.58;;
41627;SDS011;27321;50.816;6.054;2023-12-20T03:41:14;8.80;;;2.83;;
41627;SDS011;27321;50.816;6.054;2023-12-20T03:44:17;7.73;;;2.33;;
41627;SDS011;27321;50.816;6.054;2023-12-20T03:47:20;8.07;;;2.43;;
41627;SDS011;27321;50.816;6.054;2023-12-20T03:50:25;7.32;;;2.53;;
41627;SDS011;27321;50.816;6.054;2023-12-20T03:53:26;5.27;;;2.00;;
41627;SDS011;27321;50.816;6.054;2023-12-20T03:56:27;5.90;;;2.08;;
41627;SDS011;27321;50.816;6.054;2023-12-20T03:59:28;7.23;;;1.77;;
41627;SDS011;27321;50.816;6.054;2023-12-20T04:02:30;6.88;;;2.00;;
41627;SDS011;27321;50.816;6.054;2023-12-20T04:05:30;4.07;;;2.00;;
41627;SDS011;27321;50.816;6.054;2023-12-20T04:08:31;5.30;;;2.00;;
41627;SDS011;27321;50.816;6.054;2023-12-20T04:11:36;6.83;;;2.20;;
41627;SDS011;27321;50.816;6.054;2023-12-20T04:14:37;6.40;;;2.00;;
41627;SDS011;27321;50.816;6.054;2023-12-20T04:17:38;10.90;;;2.23;;
41627;SDS011;27321;50.816;6.054;2023-12-20T04:20:39;5.83;;;2.23;;
41627;SDS011;27321;50.816;6.054;2023-12-20T04:23:39;6.50;;;1.83;;
41627;SDS011;27321;50.816;6.054;2023-12-20T04:26:40;3.37;;;1.70;;
41627;SDS011;27321;50.816;6.054;2023-12-20T04:29:41;5.10;;;2.30;;
41627;SDS011;27321;50.816;6.054;2023-12-20T04:32:42;6.20;;;1.92;;
41627;SDS011;27321;50.816;6.054;2023-12-20T04:35:43;7.93;;;2.23;;
41627;SDS011;27321;50.816;6.054;2023-12-20T04:38:46;9.53;;;2.57;;
41627;SDS011;27321;50.816;6.054;2023-12-20T04:41:46;3.93;;;2.20;;
41627;SDS011;27321;50.816;6.054;2023-12-20T04:44:47;5.03;;;2.37;;
41627;SDS011;27321;50.816;6.054;2023-12-20T04:47:48;5.00;;;2.40;;
41627;SDS011;27321;50.816;6.054;2023-12-20T04:50:49;6.33;;;2.10;;
41627;SDS011;27321;50.816;6.054;2023-12-20T04:53:50;4.17;;;1.77;;
41627;SDS011;27321;50.816;6.054;2023-12-20T04:56:51;13.70;;;2.73;;
41627;SDS011;27321;50.816;6.054;2023-12-20T04:59:52;5.70;;;1.97;;
41627;SDS011;27321;50.816;6.054;2023-12-20T05:02:53;7.77;;;2.37;;
41627;SDS011;27321;50.816;6.054;2023-12-20T05:05:54;4.57;;;1.87;;
41627;SDS011;27321;50.816;6.054;2023-12-20T05:08:55;5.17;;;2.20;;
41627;SDS011;27321;50.816;6.054;2023-12-20T05:11:56;6.72;;;1.88;;
41627;SDS011;27321;50.816;6.054;2023-12-20T05:14:57;15.53;;;2.70;;
41627;SDS011;27321;50.816;6.054;2023-12-20T05:17:59;8.53;;;2.00;;
41627;SDS011;27321;50.816;6.054;2023-12-20T05:21:02;7.67;;;2.30;;
41627;SDS011;27321;50.816;6.054;2023-12-20T05:24:04;10.48;;;2.45;;
41627;SDS011;27321;50.816;6.054;2023-12-20T05:27:05;10.95;;;3.20;;
41627;SDS011;27321;50.816;6.054;2023-12-20T05:30:06;5.40;;;2.50;;
41627;SDS011;27321;50.816;6.054;2023-12-20T05:33:07;5.30;;;2.20;;
41627;SDS011;27321;50.816;6.054;2023-12-20T05:36:09;8.35;;;2.33;;
41627;SDS011;27321;50.816;6.054;2023-12-20T05:39:11;7.53;;;2.73;;
41627;SDS011;27321;50.816;6.054;2023-12-20T05:42:12;5.07;;;2.53;;
41627;SDS011;27321;50.816;6.054;2023-12-20T05:45:14;7.73;;;2.57;;
41627;SDS011;27321;50.816;6.054;2023-12-20T05:48:15;8.02;;;2.47;;
41627;SDS011;27321;50.816;6.054;2023-12-20T05:51:16;9.53;;;2.83;;
41627;SDS011;27321;50.816;6.054;2023-12-20T05:54:17;10.00;;;2.50;;
41627;SDS011;27321;50.816;6.054;2023-12-20T05:57:18;9.10;;;3.00;;
41627;SDS011;27321;50.816;6.054;2023-12-20T06:00:19;9.60;;;2.73;;
41627;SDS011;27321;50.816;6.054;2023-12-20T06:06:21;10.83;;;3.20;;
41627;SDS011;27321;50.816;6.054;2023-12-20T06:09:28;11.00;;;2.80;;
41627;SDS011;27321;50.816;6.054;2023-12-20T06:12:29;9.00;;;2.93;;
41627;SDS011;27321;50.816;6.054;2023-12-20T06:15:32;6.23;;;2.60;;
41627;SDS011;27321;50.816;6.054;2023-12-20T06:18:33;9.23;;;3.17;;
41627;SDS011;27321;50.816;6.054;2023-12-20T06:21:34;9.40;;;3.37;;
41627;SDS011;27321;50.816;6.054;2023-12-20T06:24:35;6.77;;;2.87;;
41627;SDS011;27321;50.816;6.054;2023-12-20T06:27:36;17.05;;;2.95;;
41627;SDS011;27321;50.816;6.054;2023-12-20T06:30:37;7.17;;;2.73;;
41627;SDS011;27321;50.816;6.054;2023-12-20T06:33:38;8.13;;;2.67;;
41627;SDS011;27321;50.816;6.054;2023-12-20T06:36:41;5.93;;;2.50;;
41627;SDS011;27321;50.816;6.054;2023-12-20T06:39:42;9.90;;;2.63;;
41627;SDS011;27321;50.816;6.054;2023-12-20T06:42:43;10.47;;;2.80;;
41627;SDS011;27321;50.816;6.054;2023-12-20T06:45:44;7.05;;;2.90;;
41627;SDS011;27321;50.816;6.054;2023-12-20T06:48:45;8.23;;;3.10;;
41627;SDS011;27321;50.816;6.054;2023-12-20T06:51:46;6.23;;;2.77;;
41627;SDS011;27321;50.816;6.054;2023-12-20T06:54:47;12.53;;;3.17;;
41627;SDS011;27321;50.816;6.054;2023-12-20T06:57:48;9.90;;;2.73;;
41627;SDS011;27321;50.816;6.054;2023-12-20T07:00:50;8.53;;;2.83;;
41627;SDS011;27321;50.816;6.054;2023-12-20T07:03:53;11.83;;;2.80;;
41627;SDS011;27321;50.816;6.054;2023-12-20T07:06:54;8.27;;;3.47;;
41627;SDS011;27321;50.816;6.054;2023-12-20T07:09:57;9.97;;;3.13;;
41627;SDS011;27321;50.816;6.054;2023-12-20T07:12:58;10.50;;;3.57;;
41627;SDS011;27321;50.816;6.054;2023-12-20T07:15:59;7.20;;;3.10;;
41627;SDS011;27321;50.816;6.054;2023-12-20T07:19:02;12.03;;;3.00;;
41627;SDS011;27321;50.816;6.054;2023-12-20T07:22:06;10.17;;;3.23;;
41627;SDS011;27321;50.816;6.054;2023-12-20T07:25:07;12.85;;;3.53;;
41627;SDS011;27321;50.816;6.054;2023-12-20T07:28:08;8.98;;;3.33;;
41627;SDS011;27321;50.816;6.054;2023-12-20T07:31:10;10.27;;;3.17;;
41627;SDS011;27321;50.816;6.054;2023-12-20T07:34:10;10.40;;;3.50;;
41627;SDS011;27321;50.816;6.054;2023-12-20T07:37:12;6.90;;;3.17;;
41627;SDS011;27321;50.816;6.054;2023-12-20T07:40:13;10.32;;;3.25;;
41627;SDS011;27321;50.816;6.054;2023-12-20T07:43:17;12.23;;;3.70;;
41627;SDS011;27321;50.816;6.054;2023-12-20T07:46:18;10.03;;;3.73;;
41627;SDS011;27321;50.816;6.054;2023-12-20T07:49:22;9.13;;;3.80;;
41627;SDS011;27321;50.816;6.054;2023-12-20T07:52:24;11.43;;;3.25;;
41627;SDS011;27321;50.816;6.054;2023-12-20T07:55:26;9.60;;;3.30;;
41627;SDS011;27321;50.816;6.054;2023-12-20T07:58:27;7.15;;;3.53;;
41627;SDS011;27321;50.816;6.054;2023-12-20T08:01:30;6.63;;;3.17;;
41627;SDS011;27321;50.816;6.054;2023-12-20T08:04:31;7.53;;;3.00;;
41627;SDS011;27321;50.816;6.054;2023-12-20T08:07:32;8.95;;;2.72;;
41627;SDS011;27321;50.816;6.054;2023-12-20T08:10:33;8.83;;;3.00;;
41627;SDS011;27321;50.816;6.054;2023-12-20T08:13:34;9.43;;;3.17;;
41627;SDS011;27321;50.816;6.054;2023-12-20T08:16:35;9.70;;;3.23;;
41627;SDS011;27321;50.816;6.054;2023-12-20T08:19:36;12.57;;;3.90;;
41627;SDS011;27321;50.816;6.054;2023-12-20T08:22:37;10.80;;;3.57;;
41627;SDS011;27321;50.816;6.054;2023-12-20T08:25:38;10.57;;;3.20;;
41627;SDS011;27321;50.816;6.054;2023-12-20T08:28:38;8.73;;;3.80;;
41627;SDS011;27321;50.816;6.054;2023-12-20T08:31:39;7.53;;;2.90;;
41627;SDS011;27321;50.816;6.054;2023-12-20T08:34:40;10.97;;;3.37;;
41627;SDS011;27321;50.816;6.054;2023-12-20T08:37:41;9.13;;;2.87;;
41627;SDS011;27321;50.816;6.054;2023-12-20T08:40:45;10.43;;;3.03;;
41627;SDS011;27321;50.816;6.054;2023-12-20T08:43:45;8.77;;;3.30;;
41627;SDS011;27321;50.816;6.054;2023-12-20T08:46:46;8.80;;;3.00;;
41627;SDS011;27321;50.816;6.054;2023-12-20T08:49:48;7.05;;;2.67;;
41627;SDS011;27321;50.816;6.054;2023-12-20T08:52:49;7.47;;;2.33;;
41627;SDS011;27321;50.816;6.054;2023-12-20T08:55:50;5.63;;;2.40;;
41627;SDS011;27321;50.816;6.054;2023-12-20T08:58:51;8.27;;;2.40;;
41627;SDS011;27321;50.816;6.054;2023-12-20T09:01:51;9.10;;;2.63;;
41627;SDS011;27321;50.816;6.054;2023-12-20T09:04:54;9.57;;;3.53;;
41627;SDS011;27321;50.816;6.054;2023-12-20T09:07:55;7.50;;;3.20;;
41627;SDS011;27321;50.816;6.054;2023-12-20T09:10:57;10.98;;;2.80;;
41627;SDS011;27321;50.816;6.054;2023-12-20T09:13:57;11.43;;;2.67;;
41627;SDS011;27321;50.816;6.054;2023-12-20T09:16:58;9.13;;;2.37;;
41627;SDS011;27321;50.816;6.054;2023-12-20T09:20:04;7.00;;;2.40;;
41627;SDS011;27321;50.816;6.054;2023-12-20T09:23:07;9.33;;;2.70;;
41627;SDS011;27321;50.816;6.054;2023-12-20T09:26:08;7.63;;;2.50;;
41627;SDS011;27321;50.816;6.054;2023-12-20T09:29:09;6.30;;;2.27;;
41627;SDS011;27321;50.816;6.054;2023-12-20T09:32:16;6.17;;;2.17;;
41627;SDS011;27321;50.816;6.054;2023-12-20T09:35:17;9.40;;;2.63;;
41627;SDS011;27321;50.816;6.054;2023-12-20T09:38:18;6.43;;;2.40;;
41627;SDS011;27321;50.816;6.054;2023-12-20T09:41:19;9.20;;;2.33;;
41627;SDS011;27321;50.816;6.054;2023-12-20T09:44:20;8.93;;;2.47;;
41627;SDS011;27321;50.816;6.054;2023-12-20T09:47:21;7.72;;;2.20;;
41627;SDS011;27321;50.816;6.054;2023-12-20T09:50:24;11.23;;;2.67;;
41627;SDS011;27321;50.816;6.054;2023-12-20T09:53:26;8.93;;;2.47;;
41627;SDS011;27321;50.816;6.054;2023-12-20T09:56:30;8.37;;;2.23;;
41627;SDS011;27321;50.816;6.054;2023-12-20T09:59:31;5.20;;;2.10;;
41627;SDS011;27321;50.816;6.054;2023-12-20T10:02:32;5.97;;;2.20;;
41627;SDS011;27321;50.816;6.054;2023-12-20T10:05:35;10.20;;;2.30;;
41627;SDS011;27321;50.816;6.054;2023-12-20T10:08:36;7.35;;;2.35;;
41627;SDS011;27321;50.816;6.054;2023-12-20T10:11:37;7.28;;;1.83;;
41627;SDS011;27321;50.816;6.054;2023-12-20T10:14:39;5.97;;;2.10;;
41627;SDS011;27321;50.816;6.054;2023-12-20T10:17:40;12.55;;;3.05;;
41627;SDS011;27321;50.816;6.054;2023-12-20T10:20:44;6.93;;;2.23;;
41627;SDS011;27321;50.816;6.054;2023-12-20T10:23:45;10.40;;;2.47;;
41627;SDS011;27321;50.816;6.054;2023-12-20T10:26:46;5.03;;;1.87;;
41627;SDS011;27321;50.816;6.054;2023-12-20T10:29:47;6.90;;;2.23;;
41627;SDS011;27321;50.816;6.054;2023-12-20T10:32:48;8.50;;;2.80;;
41627;SDS011;27321;50.816;6.054;2023-12-20T10:35:49;9.50;;;2.43;;
41627;SDS011;27321;50.816;6.054;2023-12-20T10:38:51;7.40;;;2.40;;
41627;SDS011;27321;50.816;6.054;2023-12-20T10:41:53;8.43;;;2.13;;
41627;SDS011;27321;50.816;6.054;2023-12-20T10:44:58;8.17;;;2.70;;
41627;SDS011;27321;50.816;6.054;2023-12-20T10:48:04;11.43;;;2.67;;
41627;SDS011;27321;50.816;6.054;2023-12-20T10:51:06;8.15;;;2.33;;
41627;SDS011;27321;50.816;6.054;2023-12-20T10:54:08;6.13;;;2.23;;
41627;SDS011;27321;50.816;6.054;2023-12-20T10:57:09;7.47;;;1.90;;
41627;SDS011;27321;50.816;6.054;2023-12-20T11:00:11;7.93;;;1.95;;
41627;SDS011;27321;50.816;6.054;2023-12-20T11:03:16;6.30;;;2.00;;
41627;SDS011;27321;50.816;6.054;2023-12-20T11:10:03;11.87;;;2.27;;
41627;SDS011;27321;50.816;6.054;2023-12-20T11:13:35;7.30;;;1.97;;
41627;SDS011;27321;50.816;6.054;2023-12-20T11:16:42;8.35;;;2.45;;
41627;SDS011;27321;50.816;6.054;2023-12-20T11:20:03;9.20;;;1.93;;
41627;SDS011;27321;50.816;6.054;2023-12-20T11:23:10;11.17;;;2.00;;
41627;SDS011;27321;50.816;6.054;2023-12-20T11:26:11;7.13;;;2.17;;
41627;SDS011;27321;50.816;6.054;2023-12-20T11:29:30;7.00;;;1.80;;
41627;SDS011;27321;50.816;6.054;2023-12-20T11:32:36;8.30;;;2.37;;
41627;SDS011;27321;50.816;6.054;2023-12-20T11:35:37;7.90;;;1.80;;
41627;SDS011;27321;50.816;6.054;2023-12-20T11:39:01;9.80;;;2.27;;
41627;SDS011;27321;50.816;6.054;2023-12-20T11:42:09;10.10;;;2.60;;
41627;SDS011;27321;50.816;6.054;2023-12-20T11:45:14;9.23;;;2.42;;
41627;SDS011;27321;50.816;6.054;2023-12-20T11:48:19;8.33;;;2.40;;
41627;SDS011;27321;50.816;6.054;2023-12-20T11:51:21;14.10;;;2.42;;
41627;SDS011;27321;50.816;6.054;2023-12-20T11:54:22;8.03;;;2.43;;
41627;SDS011;27321;50.816;6.054;2023-12-20T11:57:23;13.40;;;3.27;;
41627;SDS011;27321;50.816;6.054;2023-12-20T12:00:57;8.90;;;2.80;;
41627;SDS011;27321;50.816;6.054;2023-12-20T12:04:20;7.87;;;2.17;;
41627;SDS011;27321;50.816;6.054;2023-12-20T12:07:21;7.57;;;2.27;;
41627;SDS011;27321;50.816;6.054;2023-12-20T12:10:22;8.25;;;2.30;;
41627;SDS011;27321;50.816;6.054;2023-12-20T12:13:23;7.40;;;2.60;;
41627;SDS011;27321;50.816;6.054;2023-12-20T12:16:27;7.70;;;2.10;;
41627;SDS011;27321;50.816;6.054;2023-12-20T12:19:28;13.67;;;2.80;;
41627;SDS011;27321;50.816;6.054;2023-12-20T12:22:34;4.93;;;1.97;;
41627;SDS011;27321;50.816;6.054;2023-12-20T12:28:39;5.97;;;1.73;;
41627;SDS011;27321;50.816;6.054;2023-12-20T12:31:44;8.30;;;2.40;;
41627;SDS011;27321;50.816;6.054;2023-12-20T12:34:45;7.13;;;2.33;;
41627;SDS011;27321;50.816;6.054;2023-12-20T12:37:46;10.90;;;2.05;;
41627;SDS011;27321;50.816;6.054;2023-12-20T12:40:47;6.47;;;2.27;;
41627;SDS011;27321;50.816;6.054;2023-12-20T12:43:50;6.80;;;2.17;;
41627;SDS011;27321;50.816;6.054;2023-12-20T12:46:51;7.60;;;2.43;;
41627;SDS011;27321;50.816;6.054;2023-12-20T12:49:53;6.83;;;2.20;;
41627;SDS011;27321;50.816;6.054;2023-12-20T12:52:55;4.50;;;1.92;;
41627;SDS011;27321;50.816;6.054;2023-12-20T12:55:56;5.72;;;2.15;;
41627;SDS011;27321;50.816;6.054;2023-12-20T12:58:57;7.13;;;2.13;;
41627;SDS011;27321;50.816;6.054;2023-12-20T13:01:58;5.82;;;1.92;;
41627;SDS011;27321;50.816;6.054;2023-12-20T13:04:59;8.57;;;2.50;;
41627;SDS011;27321;50.816;6.054;2023-12-20T13:08:03;11.47;;;2.70;;
41627;SDS011;27321;50.816;6.054;2023-12-20T13:11:07;4.07;;;1.73;;
41627;SDS011;27321;50.816;6.054;2023-12-20T13:14:08;6.23;;;2.20;;
41627;SDS011;27321;50.816;6.054;2023-12-20T13:17:11;4.23;;;1.90;;
41627;SDS011;27321;50.816;6.054;2023-12-20T13:20:12;6.55;;;2.35;;
41627;SDS011;27321;50.816;6.054;2023-12-20T13:23:13;7.73;;;2.47;;
41627;SDS011;27321;50.816;6.054;2023-12-20T13:26:14;6.20;;;2.08;;
41627;SDS011;27321;50.816;6.054;2023-12-20T13:29:15;8.70;;;2.78;;
41627;SDS011;27321;50.816;6.054;2023-12-20T13:32:16;6.38;;;2.22;;
41627;SDS011;27321;50.816;6.054;2023-12-20T13:35:20;11.87;;;2.63;;
41627;SDS011;27321;50.816;6.054;2023-12-20T13:38:20;5.57;;;2.30;;
41627;SDS011;27321;50.816;6.054;2023-12-20T13:41:21;7.07;;;2.37;;
41627;SDS011;27321;50.816;6.054;2023-12-20T13:44:22;6.20;;;2.20;;
41627;SDS011;27321;50.816;6.054;2023-12-20T13:47:23;7.70;;;2.93;;
41627;SDS011;27321;50.816;6.054;2023-12-20T13:50:24;6.60;;;2.10;;
41627;SDS011;27321;50.816;6.054;2023-12-20T13:53:26;8.67;;;2.10;;
41627;SDS011;27321;50.816;6.054;2023-12-20T13:56:28;7.30;;;2.17;;
41627;SDS011;27321;50.816;6.054;2023-12-20T13:59:29;9.20;;;2.60;;
41627;SDS011;27321;50.816;6.054;2023-12-20T14:02:31;8.02;;;2.55;;
41627;SDS011;27321;50.816;6.054;2023-12-20T14:05:32;9.20;;;2.70;;
41627;SDS011;27321;50.816;6.054;2023-12-20T14:08:36;7.60;;;2.57;;
41627;SDS011;27321;50.816;6.054;2023-12-20T14:11:37;7.85;;;2.58;;
41627;SDS011;27321;50.816;6.054;2023-12-20T14:14:41;5.83;;;2.50;;
41627;SDS011;27321;50.816;6.054;2023-12-20T14:17:42;6.50;;;2.33;;
41627;SDS011;27321;50.816;6.054;2023-12-20T14:20:43;11.07;;;2.87;;
41627;SDS011;27321;50.816;6.054;2023-12-20T14:23:44;8.38;;;2.47;;
41627;SDS011;27321;50.816;6.054;2023-12-20T14:26:46;5.78;;;2.60;;
41627;SDS011;27321;50.816;6.054;2023-12-20T14:29:47;7.57;;;2.47;;
41627;SDS011;27321;50.816;6.054;2023-12-20T14:32:48;7.27;;;3.07;;
41627;SDS011;27321;50.816;6.054;2023-12-20T14:35:49;11.10;;;3.13;;
41627;SDS011;27321;50.816;6.054;2023-12-20T14:38:51;4.07;;;2.00;;
41627;SDS011;27321;50.816;6.054;2023-12-20T14:41:52;9.35;;;2.85;;
41627;SDS011;27321;50.816;6.054;2023-12-20T14:44:54;8.33;;;2.87;;
41627;SDS011;27321;50.816;6.054;2023-12-20T14:47:55;6.30;;;2.73;;
41627;SDS011;27321;50.816;6.054;2023-12-20T14:50:56;7.40;;;2.73;;
41627;SDS011;27321;50.816;6.054;2023-12-20T14:53:57;9.40;;;2.67;;
41627;SDS011;27321;50.816;6.054;2023-12-20T14:56:59;10.03;;;2.37;;
41627;SDS011;27321;50.816;6.054;2023-12-20T15:00:00;6.17;;;2.50;;
41627;SDS011;27321;50.816;6.054;2023-12-20T15:03:04;7.97;;;2.43;;
41627;SDS011;27321;50.816;6.054;2023-12-20T15:06:07;7.43;;;2.47;;
41627;SDS011;27321;50.816;6.054;2023-12-20T15:09:11;7.30;;;2.60;;
41627;SDS011;27321;50.816;6.054;2023-12-20T15:12:16;6.70;;;2.60;;
41627;SDS011;27321;50.816;6.054;2023-12-20T15:15:16;7.73;;;2.43;;
41627;SDS011;27321;50.816;6.054;2023-12-20T15:18:17;6.90;;;2.80;;
41627;SDS011;27321;50.816;6.054;2023-12-20T15:21:18;4.27;;;2.37;;
41627;SDS011;27321;50.816;6.054;2023-12-20T15:24:19;4.00;;;1.75;;
41627;SDS011;27321;50.816;6.054;2023-12-20T15:27:27;7.03;;;2.80;;
41627;SDS011;27321;50.816;6.054;2023-12-20T15:30:28;9.73;;;2.90;;
41627;SDS011;27321;50.816;6.054;2023-12-20T15:36:30;5.97;;;2.43;;
41627;SDS011;27321;50.816;6.054;2023-12-20T15:39:32;8.67;;;3.03;;
41627;SDS011;27321;50.816;6.054;2023-12-20T15:42:33;7.85;;;2.67;;
41627;SDS011;27321;50.816;6.054;2023-12-20T15:45:36;8.03;;;2.33;;
41627;SDS011;27321;50.816;6.054;2023-12-20T15:48:37;11.27;;;2.90;;
41627;SDS011;27321;50.816;6.054;2023-12-20T15:51:38;5.53;;;2.67;;
41627;SDS011;27321;50.816;6.054;2023-12-20T15:54:39;8.77;;;2.70;;
41627;SDS011;27321;50.816;6.054;2023-12-20T15:57:41;9.93;;;2.77;;
41627;SDS011;27321;50.816;6.054;2023-12-20T16:00:42;9.43;;;3.00;;
41627;SDS011;27321;50.816;6.054;2023-12-20T16:03:43;6.80;;;2.60;;
41627;SDS011;27321;50.816;6.054;2023-12-20T16:06:44;13.13;;;3.17;;
41627;SDS011;27321;50.816;6.054;2023-12-20T16:09:48;10.93;;;3.03;;
41627;SDS011;27321;50.816;6.054;2023-12-20T16:12:52;6.50;;;2.53;;
41627;SDS011;27321;50.816;6.054;2023-12-20T16:15:53;11.07;;;2.50;;
41627;SDS011;27321;50.816;6.054;2023-12-20T16:18:54;9.30;;;2.57;;
41627;SDS011;27321;50.816;6.054;2023-12-20T16:21:55;10.00;;;2.67;;
41627;SDS011;27321;50.816;6.054;2023-12-20T16:24:56;8.90;;;2.63;;
41627;SDS011;27321;50.816;6.054;2023-12-20T16:27:57;10.63;;;2.90;;
41627;SDS011;27321;50.816;6.054;2023-12-20T16:30:57;9.07;;;2.40;;
41627;SDS011;27321;50.816;6.054;2023-12-20T16:33:58;9.93;;;2.73;;
41627;SDS011;27321;50.816;6.054;2023-12-20T16:36:59;10.30;;;2.87;;
41627;SDS011;27321;50.816;6.054;2023-12-20T16:40:02;8.37;;;2.93;;
41627;SDS011;27321;50.816;6.054;2023-12-20T16:43:08;9.10;;;2.60;;
41627;SDS011;27321;50.816;6.054;2023-12-20T16:46:09;6.77;;;2.33;;
41627;SDS011;27321;50.816;6.054;2023-12-20T16:49:10;6.03;;;2.37;;
41627;SDS011;27321;50.816;6.054;2023-12-20T16:52:11;8.05;;;2.58;;
41627;SDS011;27321;50.816;6.054;2023-12-20T16:55:13;8.47;;;2.27;;
41627;SDS011;27321;50.816;6.054;2023-12-20T16:58:15;6.07;;;2.20;;
41627;SDS011;27321;50.816;6.054;2023-12-20T17:01:16;5.13;;;2.30;;
41627;SDS011;27321;50.816;6.054;2023-12-20T17:04:17;7.50;;;2.72;;
41627;SDS011;27321;50.816;6.054;2023-12-20T17:07:18;6.57;;;2.65;;
41627;SDS011;27321;50.816;6.054;2023-12-20T17:10:19;9.43;;;2.80;;
41627;SDS011;27321;50.816;6.054;2023-12-20T17:13:20;8.35;;;2.47;;
41627;SDS011;27321;50.816;6.054;2023-12-20T17:16:21;5.60;;;1.93;;
41627;SDS011;27321;50.816;6.054;2023-12-20T17:19:22;11.23;;;3.03;;
41627;SDS011;27321;50.816;6.054;2023-12-20T17:25:24;8.63;;;2.83;;
41627;SDS011;27321;50.816;6.054;2023-12-20T17:28:25;5.47;;;2.27;;
41627;SDS011;27321;50.816;6.054;2023-12-20T17:31:26;8.80;;;2.58;;
41627;SDS011;27321;50.816;6.054;2023-12-20T17:34:27;9.85;;;2.78;;
41627;SDS011;27321;50.816;6.054;2023-12-20T17:37:28;6.23;;;3.10;;
41627;SDS011;27321;50.816;6.054;2023-12-20T17:40:29;7.65;;;2.70;;
41627;SDS011;27321;50.816;6.054;2023-12-20T17:43:30;11.60;;;3.03;;
41627;SDS011;27321;50.816;6.054;2023-12-20T17:46:31;6.73;;;2.50;;
41627;SDS011;27321;50.816;6.054;2023-12-20T17:49:32;5.00;;;2.25;;
41627;SDS011;27321;50.816;6.054;2023-12-20T17:52:33;7.70;;;2.60;;
41627;SDS011;27321;50.816;6.054;2023-12-20T17:55:34;6.75;;;2.58;;
41627;SDS011;27321;50.816;6.054;2023-12-20T17:58:35;12.20;;;3.67;;
41627;SDS011;27321;50.816;6.054;2023-12-20T18:01:36;9.73;;;3.33;;
41627;SDS011;27321;50.816;6.054;2023-12-20T18:04:38;8.43;;;2.75;;
41627;SDS011;27321;50.816;6.054;2023-12-20T18:07:39;6.97;;;2.77;;
41627;SDS011;27321;50.816;6.054;2023-12-20T18:10:42;8.13;;;3.20;;
41627;SDS011;27321;50.816;6.054;2023-12-20T18:13:43;7.43;;;3.38;;
41627;SDS011;27321;50.816;6.054;2023-12-20T18:16:44;8.20;;;3.57;;
41627;SDS011;27321;50.816;6.054;2023-12-20T18:19:45;10.00;;;3.23;;
41627;SDS011;27321;50.816;6.054;2023-12-20T18:22:46;10.43;;;3.20;;
41627;SDS011;27321;50.816;6.054;2023-12-20T18:25:47;6.27;;;3.03;;
41627;SDS011;27321;50.816;6.054;2023-12-20T18:28:48;8.05;;;3.63;;